sensor_id;sensor_type;location;lat;lon;timestamp;P1;durP1;ratioP1;P2;durP2;ratioP2
70071;SDS011;57434;42.794;23.302;2023-09-19T00:00:11;6.03;;;2.90;;
70071;SDS011;57434;42.794;23.302;2023-09-19T00:01:12;7.97;;;3.00;;
70071;SDS011;57434;42.794;23.302;2023-09-19T00:02:14;7.55;;;3.00;;
70071;SDS011;57434;42.794;23.302;2023-09-19T00:03:16;7.75;;;3.22;;
70071;SDS011;57434;42.794;23.302;2023-09-19T00:04:18;7.17;;;3.40;;
70071;SDS011;57434;42.794;23.302;2023-09-19T00:05:20;9.05;;;3.30;;
70071;SDS011;57434;42.794;23.302;2023-09-19T00:06:22;7.13;;;3.22;;
70071;SDS011;57434;42.794;23.302;2023-09-19T00:07:24;7.10;;;3.42;;
70071;SDS011;57434;42.794;23.302;2023-09-19T00:08:25;8.93;;;3.20;;
70071;SDS011;57434;42.794;23.302;2023-09-19T00:09:27;13.05;;;3.30;;
70071;SDS011;57434;42.794;23.302;2023-09-19T00:10:28;7.35;;;3.42;;
70071;SDS011;57434;42.794;23.302;2023-09-19T00:11:30;7.78;;;3.10;;
70071;SDS011;57434;42.794;23.302;2023-09-19T00:12:32;6.38;;;3.20;;
70071;SDS011;57434;42.794;23.302;2023-09-19T00:13:33;7.32;;;2.70;;
70071;SDS011;57434;42.794;23.302;2023-09-19T00:14:35;6.43;;;3.30;;
70071;SDS011;57434;42.794;23.302;2023-09-19T00:15:38;7.70;;;3.00;;
70071;SDS011;57434;42.794;23.302;2023-09-19T00:16:40;10.02;;;3.38;;
70071;SDS011;57434;42.794;23.302;2023-09-19T00:17:42;6.25;;;2.90;;
70071;SDS011;57434;42.794;23.302;2023-09-19T00:18:44;6.90;;;3.35;;
70071;SDS011;57434;42.794;23.302;2023-09-19T00:19:46;6.53;;;2.80;;
70071;SDS011;57434;42.794;23.302;2023-09-19T00:20:47;8.15;;;3.67;;
70071;SDS011;57434;42.794;23.302;2023-09-19T00:21:49;7.10;;;3.10;;
70071;SDS011;57434;42.794;23.302;2023-09-19T00:22:50;6.95;;;2.70;;
70071;SDS011;57434;42.794;23.302;2023-09-19T00:23:52;8.57;;;3.05;;
70071;SDS011;57434;42.794;23.302;2023-09-19T00:24:53;7.30;;;3.40;;
70071;SDS011;57434;42.794;23.302;2023-09-19T00:25:58;9.73;;;2.95;;
70071;SDS011;57434;42.794;23.302;2023-09-19T00:26:59;6.68;;;2.75;;
70071;SDS011;57434;42.794;23.302;2023-09-19T00:28:01;6.72;;;2.95;;
70071;SDS011;57434;42.794;23.302;2023-09-19T00:29:03;6.60;;;3.15;;
70071;SDS011;57434;42.794;23.302;2023-09-19T00:30:05;9.40;;;3.40;;
70071;SDS011;57434;42.794;23.302;2023-09-19T00:31:09;10.00;;;3.00;;
70071;SDS011;57434;42.794;23.302;2023-09-19T00:32:11;8.02;;;3.40;;
70071;SDS011;57434;42.794;23.302;2023-09-19T00:33:12;6.30;;;2.95;;
70071;SDS011;57434;42.794;23.302;2023-09-19T00:34:14;8.23;;;3.15;;
70071;SDS011;57434;42.794;23.302;2023-09-19T00:35:16;6.57;;;3.50;;
70071;SDS011;57434;42.794;23.302;2023-09-19T00:36:17;5.80;;;2.80;;
70071;SDS011;57434;42.794;23.302;2023-09-19T00:37:19;10.32;;;3.42;;
70071;SDS011;57434;42.794;23.302;2023-09-19T00:38:21;7.30;;;3.70;;
70071;SDS011;57434;42.794;23.302;2023-09-19T00:39:22;6.32;;;2.95;;
70071;SDS011;57434;42.794;23.302;2023-09-19T00:40:24;7.30;;;3.33;;
70071;SDS011;57434;42.794;23.302;2023-09-19T00:41:25;7.70;;;3.15;;
70071;SDS011;57434;42.794;23.302;2023-09-19T00:42:27;8.27;;;3.30;;
70071;SDS011;57434;42.794;23.302;2023-09-19T00:43:29;7.78;;;3.10;;
70071;SDS011;57434;42.794;23.302;2023-09-19T00:44:30;9.85;;;3.30;;
70071;SDS011;57434;42.794;23.302;2023-09-19T00:45:32;7.67;;;3.17;;
70071;SDS011;57434;42.794;23.302;2023-09-19T00:46:33;8.15;;;3.10;;
70071;SDS011;57434;42.794;23.302;2023-09-19T00:47:35;8.13;;;2.90;;
70071;SDS011;57434;42.794;23.302;2023-09-19T00:48:40;6.63;;;2.90;;
70071;SDS011;57434;42.794;23.302;2023-09-19T00:49:43;8.70;;;3.38;;
70071;SDS011;57434;42.794;23.302;2023-09-19T00:50:45;6.03;;;2.80;;
70071;SDS011;57434;42.794;23.302;2023-09-19T00:51:47;6.90;;;2.80;;
70071;SDS011;57434;42.794;23.302;2023-09-19T00:52:49;8.20;;;3.17;;
70071;SDS011;57434;42.794;23.302;2023-09-19T00:53:52;7.80;;;3.45;;
70071;SDS011;57434;42.794;23.302;2023-09-19T00:54:53;7.90;;;3.38;;
70071;SDS011;57434;42.794;23.302;2023-09-19T00:55:55;7.17;;;3.10;;
70071;SDS011;57434;42.794;23.302;2023-09-19T00:56:57;7.30;;;3.40;;
70071;SDS011;57434;42.794;23.302;2023-09-19T00:57:58;8.82;;;3.22;;
70071;SDS011;57434;42.794;23.302;2023-09-19T00:59:00;6.47;;;3.45;;
70071;SDS011;57434;42.794;23.302;2023-09-19T01:00:02;8.68;;;3.00;;
70071;SDS011;57434;42.794;23.302;2023-09-19T01:01:03;6.68;;;2.88;;
70071;SDS011;57434;42.794;23.302;2023-09-19T01:02:06;6.20;;;3.05;;
70071;SDS011;57434;42.794;23.302;2023-09-19T01:03:07;6.80;;;3.00;;
70071;SDS011;57434;42.794;23.302;2023-09-19T01:04:09;6.28;;;3.10;;
70071;SDS011;57434;42.794;23.302;2023-09-19T01:05:11;9.77;;;3.13;;
70071;SDS011;57434;42.794;23.302;2023-09-19T01:06:13;7.23;;;3.40;;
70071;SDS011;57434;42.794;23.302;2023-09-19T01:07:15;8.32;;;3.28;;
70071;SDS011;57434;42.794;23.302;2023-09-19T01:08:16;7.78;;;3.25;;
70071;SDS011;57434;42.794;23.302;2023-09-19T01:09:19;7.35;;;3.08;;
70071;SDS011;57434;42.794;23.302;2023-09-19T01:10:21;8.18;;;2.90;;
70071;SDS011;57434;42.794;23.302;2023-09-19T01:11:32;7.60;;;3.67;;
70071;SDS011;57434;42.794;23.302;2023-09-19T01:15:00;7.63;;;3.03;;
70071;SDS011;57434;42.794;23.302;2023-09-19T01:21:05;8.30;;;3.47;;
70071;SDS011;57434;42.794;23.302;2023-09-19T01:23:18;7.55;;;3.40;;
70071;SDS011;57434;42.794;23.302;2023-09-19T01:26:56;6.15;;;3.10;;
70071;SDS011;57434;42.794;23.302;2023-09-19T01:30:43;9.63;;;3.28;;
70071;SDS011;57434;42.794;23.302;2023-09-19T01:31:44;7.25;;;3.70;;
70071;SDS011;57434;42.794;23.302;2023-09-19T01:32:50;7.72;;;3.65;;
70071;SDS011;57434;42.794;23.302;2023-09-19T01:33:55;8.10;;;2.97;;
70071;SDS011;57434;42.794;23.302;2023-09-19T01:34:57;7.95;;;3.40;;
70071;SDS011;57434;42.794;23.302;2023-09-19T01:35:58;7.35;;;3.20;;
70071;SDS011;57434;42.794;23.302;2023-09-19T01:37:00;5.97;;;2.88;;
70071;SDS011;57434;42.794;23.302;2023-09-19T01:38:02;7.57;;;3.35;;
70071;SDS011;57434;42.794;23.302;2023-09-19T01:39:07;6.75;;;3.28;;
70071;SDS011;57434;42.794;23.302;2023-09-19T01:40:12;7.17;;;3.00;;
70071;SDS011;57434;42.794;23.302;2023-09-19T01:41:14;7.32;;;3.20;;
70071;SDS011;57434;42.794;23.302;2023-09-19T01:43:26;7.72;;;3.83;;
70071;SDS011;57434;42.794;23.302;2023-09-19T01:44:31;13.90;;;3.58;;
70071;SDS011;57434;42.794;23.302;2023-09-19T01:45:50;8.45;;;3.25;;
70071;SDS011;57434;42.794;23.302;2023-09-19T01:46:54;7.95;;;3.40;;
70071;SDS011;57434;42.794;23.302;2023-09-19T01:48:04;6.88;;;3.40;;
70071;SDS011;57434;42.794;23.302;2023-09-19T01:50:30;9.57;;;3.83;;
70071;SDS011;57434;42.794;23.302;2023-09-19T01:51:53;11.53;;;3.83;;
70071;SDS011;57434;42.794;23.302;2023-09-19T01:52:59;7.60;;;3.38;;
70071;SDS011;57434;42.794;23.302;2023-09-19T01:54:03;7.88;;;3.40;;
70071;SDS011;57434;42.794;23.302;2023-09-19T01:55:08;7.43;;;3.50;;
70071;SDS011;57434;42.794;23.302;2023-09-19T01:56:12;7.22;;;3.63;;
70071;SDS011;57434;42.794;23.302;2023-09-19T01:57:20;10.32;;;4.25;;
70071;SDS011;57434;42.794;23.302;2023-09-19T01:58:31;8.88;;;4.00;;
70071;SDS011;57434;42.794;23.302;2023-09-19T01:59:41;9.02;;;4.20;;
70071;SDS011;57434;42.794;23.302;2023-09-19T02:02:22;9.23;;;4.03;;
70071;SDS011;57434;42.794;23.302;2023-09-19T02:03:24;9.30;;;4.03;;
70071;SDS011;57434;42.794;23.302;2023-09-19T02:04:26;8.60;;;4.13;;
70071;SDS011;57434;42.794;23.302;2023-09-19T02:05:28;8.65;;;4.20;;
70071;SDS011;57434;42.794;23.302;2023-09-19T02:06:30;9.10;;;4.10;;
70071;SDS011;57434;42.794;23.302;2023-09-19T02:07:31;11.48;;;4.20;;
70071;SDS011;57434;42.794;23.302;2023-09-19T02:08:33;8.60;;;3.63;;
70071;SDS011;57434;42.794;23.302;2023-09-19T02:09:35;8.93;;;3.95;;
70071;SDS011;57434;42.794;23.302;2023-09-19T02:10:36;9.05;;;4.05;;
70071;SDS011;57434;42.794;23.302;2023-09-19T02:11:38;7.90;;;3.90;;
70071;SDS011;57434;42.794;23.302;2023-09-19T02:12:40;7.60;;;3.40;;
70071;SDS011;57434;42.794;23.302;2023-09-19T02:13:41;9.70;;;3.70;;
70071;SDS011;57434;42.794;23.302;2023-09-19T02:14:43;6.95;;;3.20;;
70071;SDS011;57434;42.794;23.302;2023-09-19T02:15:45;7.90;;;3.55;;
70071;SDS011;57434;42.794;23.302;2023-09-19T02:16:47;7.63;;;3.75;;
70071;SDS011;57434;42.794;23.302;2023-09-19T02:17:48;10.52;;;4.45;;
70071;SDS011;57434;42.794;23.302;2023-09-19T02:18:50;9.80;;;3.53;;
70071;SDS011;57434;42.794;23.302;2023-09-19T02:19:55;6.35;;;3.40;;
70071;SDS011;57434;42.794;23.302;2023-09-19T02:20:56;7.57;;;3.65;;
70071;SDS011;57434;42.794;23.302;2023-09-19T02:21:58;9.75;;;3.35;;
70071;SDS011;57434;42.794;23.302;2023-09-19T02:22:59;7.32;;;3.72;;
70071;SDS011;57434;42.794;23.302;2023-09-19T02:24:01;7.90;;;3.60;;
70071;SDS011;57434;42.794;23.302;2023-09-19T02:25:03;7.82;;;3.50;;
70071;SDS011;57434;42.794;23.302;2023-09-19T02:26:04;9.50;;;3.50;;
70071;SDS011;57434;42.794;23.302;2023-09-19T02:27:06;8.07;;;3.70;;
70071;SDS011;57434;42.794;23.302;2023-09-19T02:28:08;8.57;;;3.63;;
70071;SDS011;57434;42.794;23.302;2023-09-19T02:29:09;8.65;;;4.10;;
70071;SDS011;57434;42.794;23.302;2023-09-19T02:30:11;13.55;;;4.75;;
70071;SDS011;57434;42.794;23.302;2023-09-19T02:31:13;21.98;;;5.88;;
70071;SDS011;57434;42.794;23.302;2023-09-19T02:32:15;14.52;;;5.78;;
70071;SDS011;57434;42.794;23.302;2023-09-19T02:33:17;20.17;;;6.85;;
70071;SDS011;57434;42.794;23.302;2023-09-19T02:34:18;18.67;;;8.30;;
70071;SDS011;57434;42.794;23.302;2023-09-19T02:35:20;25.67;;;10.10;;
70071;SDS011;57434;42.794;23.302;2023-09-19T02:36:22;19.48;;;8.00;;
70071;SDS011;57434;42.794;23.302;2023-09-19T02:37:23;15.30;;;6.65;;
70071;SDS011;57434;42.794;23.302;2023-09-19T02:38:25;13.23;;;5.88;;
70071;SDS011;57434;42.794;23.302;2023-09-19T02:39:27;12.20;;;5.10;;
70071;SDS011;57434;42.794;23.302;2023-09-19T02:40:28;11.13;;;5.13;;
70071;SDS011;57434;42.794;23.302;2023-09-19T02:41:30;12.43;;;4.60;;
70071;SDS011;57434;42.794;23.302;2023-09-19T02:42:32;12.43;;;5.65;;
70071;SDS011;57434;42.794;23.302;2023-09-19T02:43:33;10.23;;;4.80;;
70071;SDS011;57434;42.794;23.302;2023-09-19T02:44:35;12.40;;;6.17;;
70071;SDS011;57434;42.794;23.302;2023-09-19T02:45:37;14.10;;;6.10;;
70071;SDS011;57434;42.794;23.302;2023-09-19T02:46:38;10.85;;;5.10;;
70071;SDS011;57434;42.794;23.302;2023-09-19T02:47:40;11.85;;;4.93;;
70071;SDS011;57434;42.794;23.302;2023-09-19T02:48:42;8.73;;;4.18;;
70071;SDS011;57434;42.794;23.302;2023-09-19T02:49:44;8.73;;;3.95;;
70071;SDS011;57434;42.794;23.302;2023-09-19T02:50:51;9.10;;;4.03;;
70071;SDS011;57434;42.794;23.302;2023-09-19T02:51:53;9.68;;;4.10;;
70071;SDS011;57434;42.794;23.302;2023-09-19T02:52:55;8.55;;;3.88;;
70071;SDS011;57434;42.794;23.302;2023-09-19T02:53:56;7.32;;;3.70;;
70071;SDS011;57434;42.794;23.302;2023-09-19T02:54:58;8.43;;;3.83;;
70071;SDS011;57434;42.794;23.302;2023-09-19T02:56:00;9.63;;;3.88;;
70071;SDS011;57434;42.794;23.302;2023-09-19T02:57:01;7.63;;;3.90;;
70071;SDS011;57434;42.794;23.302;2023-09-19T02:58:03;7.88;;;3.85;;
70071;SDS011;57434;42.794;23.302;2023-09-19T02:59:05;21.13;;;4.57;;
70071;SDS011;57434;42.794;23.302;2023-09-19T03:00:07;8.60;;;3.65;;
70071;SDS011;57434;42.794;23.302;2023-09-19T03:01:12;6.28;;;3.00;;
70071;SDS011;57434;42.794;23.302;2023-09-19T03:02:14;8.02;;;3.72;;
70071;SDS011;57434;42.794;23.302;2023-09-19T03:03:16;10.00;;;3.58;;
70071;SDS011;57434;42.794;23.302;2023-09-19T03:04:17;7.88;;;3.72;;
70071;SDS011;57434;42.794;23.302;2023-09-19T03:05:19;8.00;;;3.50;;
70071;SDS011;57434;42.794;23.302;2023-09-19T03:06:21;9.02;;;3.70;;
70071;SDS011;57434;42.794;23.302;2023-09-19T03:07:23;13.70;;;4.07;;
70071;SDS011;57434;42.794;23.302;2023-09-19T03:08:25;6.70;;;3.28;;
70071;SDS011;57434;42.794;23.302;2023-09-19T03:09:26;8.73;;;4.15;;
70071;SDS011;57434;42.794;23.302;2023-09-19T03:10:28;9.93;;;3.95;;
70071;SDS011;57434;42.794;23.302;2023-09-19T03:11:30;12.10;;;4.30;;
70071;SDS011;57434;42.794;23.302;2023-09-19T03:12:32;6.72;;;3.45;;
70071;SDS011;57434;42.794;23.302;2023-09-19T03:13:33;8.15;;;4.10;;
70071;SDS011;57434;42.794;23.302;2023-09-19T03:14:35;9.45;;;4.20;;
70071;SDS011;57434;42.794;23.302;2023-09-19T03:15:40;17.40;;;5.80;;
70071;SDS011;57434;42.794;23.302;2023-09-19T03:16:42;15.05;;;6.82;;
70071;SDS011;57434;42.794;23.302;2023-09-19T03:17:44;14.55;;;7.10;;
70071;SDS011;57434;42.794;23.302;2023-09-19T03:18:46;12.10;;;5.47;;
70071;SDS011;57434;42.794;23.302;2023-09-19T03:19:48;20.42;;;5.00;;
70071;SDS011;57434;42.794;23.302;2023-09-19T03:20:55;14.68;;;4.20;;
70071;SDS011;57434;42.794;23.302;2023-09-19T03:21:57;8.50;;;4.03;;
70071;SDS011;57434;42.794;23.302;2023-09-19T03:22:59;9.32;;;3.55;;
70071;SDS011;57434;42.794;23.302;2023-09-19T03:24:00;9.73;;;4.25;;
70071;SDS011;57434;42.794;23.302;2023-09-19T03:25:02;8.90;;;4.35;;
70071;SDS011;57434;42.794;23.302;2023-09-19T03:26:04;8.07;;;3.70;;
70071;SDS011;57434;42.794;23.302;2023-09-19T03:27:05;8.65;;;3.85;;
70071;SDS011;57434;42.794;23.302;2023-09-19T03:28:07;12.40;;;4.20;;
70071;SDS011;57434;42.794;23.302;2023-09-19T03:29:09;10.02;;;3.92;;
70071;SDS011;57434;42.794;23.302;2023-09-19T03:30:10;8.68;;;4.32;;
70071;SDS011;57434;42.794;23.302;2023-09-19T03:31:12;8.93;;;4.03;;
70071;SDS011;57434;42.794;23.302;2023-09-19T03:32:14;9.40;;;4.50;;
70071;SDS011;57434;42.794;23.302;2023-09-19T03:33:15;8.02;;;3.92;;
70071;SDS011;57434;42.794;23.302;2023-09-19T03:34:17;9.48;;;4.47;;
70071;SDS011;57434;42.794;23.302;2023-09-19T03:35:19;8.48;;;4.00;;
70071;SDS011;57434;42.794;23.302;2023-09-19T03:36:20;10.20;;;4.33;;
70071;SDS011;57434;42.794;23.302;2023-09-19T03:37:22;8.38;;;3.90;;
70071;SDS011;57434;42.794;23.302;2023-09-19T03:38:24;9.93;;;3.90;;
70071;SDS011;57434;42.794;23.302;2023-09-19T03:39:26;10.10;;;4.18;;
70071;SDS011;57434;42.794;23.302;2023-09-19T03:40:27;7.97;;;3.78;;
70071;SDS011;57434;42.794;23.302;2023-09-19T03:41:29;7.28;;;3.58;;
70071;SDS011;57434;42.794;23.302;2023-09-19T03:42:31;9.65;;;4.10;;
70071;SDS011;57434;42.794;23.302;2023-09-19T03:43:33;10.73;;;3.92;;
70071;SDS011;57434;42.794;23.302;2023-09-19T03:44:34;8.50;;;3.85;;
70071;SDS011;57434;42.794;23.302;2023-09-19T03:45:36;8.43;;;3.67;;
70071;SDS011;57434;42.794;23.302;2023-09-19T03:46:37;9.67;;;4.50;;
70071;SDS011;57434;42.794;23.302;2023-09-19T03:47:39;10.38;;;4.60;;
70071;SDS011;57434;42.794;23.302;2023-09-19T03:48:41;7.82;;;4.05;;
70071;SDS011;57434;42.794;23.302;2023-09-19T03:49:42;8.45;;;4.50;;
70071;SDS011;57434;42.794;23.302;2023-09-19T03:50:44;9.30;;;4.25;;
70071;SDS011;57434;42.794;23.302;2023-09-19T03:51:46;9.27;;;4.35;;
70071;SDS011;57434;42.794;23.302;2023-09-19T03:52:47;9.43;;;4.15;;
70071;SDS011;57434;42.794;23.302;2023-09-19T03:53:49;9.02;;;4.82;;
70071;SDS011;57434;42.794;23.302;2023-09-19T03:54:50;11.20;;;4.45;;
70071;SDS011;57434;42.794;23.302;2023-09-19T03:55:52;8.27;;;4.50;;
70071;SDS011;57434;42.794;23.302;2023-09-19T03:56:54;8.97;;;5.10;;
70071;SDS011;57434;42.794;23.302;2023-09-19T03:57:55;12.32;;;4.10;;
70071;SDS011;57434;42.794;23.302;2023-09-19T03:58:57;7.93;;;4.03;;
70071;SDS011;57434;42.794;23.302;2023-09-19T03:59:59;9.57;;;4.50;;
70071;SDS011;57434;42.794;23.302;2023-09-19T04:01:00;8.88;;;5.07;;
70071;SDS011;57434;42.794;23.302;2023-09-19T04:02:02;11.25;;;4.57;;
70071;SDS011;57434;42.794;23.302;2023-09-19T04:03:04;8.40;;;4.00;;
70071;SDS011;57434;42.794;23.302;2023-09-19T04:04:06;8.85;;;4.13;;
70071;SDS011;57434;42.794;23.302;2023-09-19T04:05:09;11.30;;;4.78;;
70071;SDS011;57434;42.794;23.302;2023-09-19T04:06:10;7.95;;;4.68;;
70071;SDS011;57434;42.794;23.302;2023-09-19T04:07:12;10.60;;;4.40;;
70071;SDS011;57434;42.794;23.302;2023-09-19T04:08:14;10.05;;;4.85;;
70071;SDS011;57434;42.794;23.302;2023-09-19T04:09:16;14.73;;;6.40;;
70071;SDS011;57434;42.794;23.302;2023-09-19T04:10:17;13.48;;;6.50;;
70071;SDS011;57434;42.794;23.302;2023-09-19T04:11:19;12.73;;;5.60;;
70071;SDS011;57434;42.794;23.302;2023-09-19T04:12:20;10.50;;;5.43;;
70071;SDS011;57434;42.794;23.302;2023-09-19T04:13:22;12.75;;;5.53;;
70071;SDS011;57434;42.794;23.302;2023-09-19T04:14:24;10.05;;;5.53;;
70071;SDS011;57434;42.794;23.302;2023-09-19T04:15:25;9.20;;;4.40;;
70071;SDS011;57434;42.794;23.302;2023-09-19T04:16:27;9.55;;;4.50;;
70071;SDS011;57434;42.794;23.302;2023-09-19T04:17:29;11.07;;;4.80;;
70071;SDS011;57434;42.794;23.302;2023-09-19T04:18:30;9.60;;;4.72;;
70071;SDS011;57434;42.794;23.302;2023-09-19T04:19:32;9.65;;;4.72;;
70071;SDS011;57434;42.794;23.302;2023-09-19T04:20:34;10.80;;;4.97;;
70071;SDS011;57434;42.794;23.302;2023-09-19T04:21:35;9.05;;;4.90;;
70071;SDS011;57434;42.794;23.302;2023-09-19T04:22:37;11.25;;;5.20;;
70071;SDS011;57434;42.794;23.302;2023-09-19T04:23:38;9.80;;;4.85;;
70071;SDS011;57434;42.794;23.302;2023-09-19T04:24:40;11.50;;;5.68;;
70071;SDS011;57434;42.794;23.302;2023-09-19T04:25:42;13.10;;;6.15;;
70071;SDS011;57434;42.794;23.302;2023-09-19T04:26:44;13.48;;;6.22;;
70071;SDS011;57434;42.794;23.302;2023-09-19T04:27:46;14.10;;;5.80;;
70071;SDS011;57434;42.794;23.302;2023-09-19T04:28:48;11.80;;;5.28;;
70071;SDS011;57434;42.794;23.302;2023-09-19T04:29:49;12.18;;;5.25;;
70071;SDS011;57434;42.794;23.302;2023-09-19T04:30:51;10.50;;;5.10;;
70071;SDS011;57434;42.794;23.302;2023-09-19T04:31:52;9.10;;;4.90;;
70071;SDS011;57434;42.794;23.302;2023-09-19T04:32:54;10.95;;;5.35;;
70071;SDS011;57434;42.794;23.302;2023-09-19T04:33:56;8.07;;;4.50;;
70071;SDS011;57434;42.794;23.302;2023-09-19T04:34:57;9.25;;;4.50;;
70071;SDS011;57434;42.794;23.302;2023-09-19T04:35:59;10.25;;;4.63;;
70071;SDS011;57434;42.794;23.302;2023-09-19T04:37:15;9.60;;;5.53;;
70071;SDS011;57434;42.794;23.302;2023-09-19T04:38:20;12.93;;;5.03;;
70071;SDS011;57434;42.794;23.302;2023-09-19T04:39:21;9.18;;;4.43;;
70071;SDS011;57434;42.794;23.302;2023-09-19T04:40:23;9.48;;;4.80;;
70071;SDS011;57434;42.794;23.302;2023-09-19T04:41:25;9.18;;;4.38;;
70071;SDS011;57434;42.794;23.302;2023-09-19T04:42:26;9.88;;;5.13;;
70071;SDS011;57434;42.794;23.302;2023-09-19T04:43:28;9.65;;;4.85;;
70071;SDS011;57434;42.794;23.302;2023-09-19T04:44:30;8.85;;;4.65;;
70071;SDS011;57434;42.794;23.302;2023-09-19T04:45:32;9.13;;;4.75;;
70071;SDS011;57434;42.794;23.302;2023-09-19T04:46:34;9.77;;;4.88;;
70071;SDS011;57434;42.794;23.302;2023-09-19T04:47:39;11.13;;;4.78;;
70071;SDS011;57434;42.794;23.302;2023-09-19T04:48:41;10.37;;;4.93;;
70071;SDS011;57434;42.794;23.302;2023-09-19T04:49:42;12.77;;;4.90;;
70071;SDS011;57434;42.794;23.302;2023-09-19T04:50:44;10.65;;;5.47;;
70071;SDS011;57434;42.794;23.302;2023-09-19T04:51:45;10.88;;;5.20;;
70071;SDS011;57434;42.794;23.302;2023-09-19T04:52:50;9.55;;;5.03;;
70071;SDS011;57434;42.794;23.302;2023-09-19T04:53:52;11.02;;;5.30;;
70071;SDS011;57434;42.794;23.302;2023-09-19T04:54:53;10.35;;;4.90;;
70071;SDS011;57434;42.794;23.302;2023-09-19T04:55:55;11.18;;;5.88;;
70071;SDS011;57434;42.794;23.302;2023-09-19T04:56:57;11.80;;;4.80;;
70071;SDS011;57434;42.794;23.302;2023-09-19T04:57:58;14.80;;;5.50;;
70071;SDS011;57434;42.794;23.302;2023-09-19T04:59:00;9.47;;;5.17;;
70071;SDS011;57434;42.794;23.302;2023-09-19T05:00:02;10.80;;;5.60;;
70071;SDS011;57434;42.794;23.302;2023-09-19T05:01:04;11.57;;;5.30;;
70071;SDS011;57434;42.794;23.302;2023-09-19T05:02:05;10.45;;;5.38;;
70071;SDS011;57434;42.794;23.302;2023-09-19T05:03:07;12.70;;;5.47;;
70071;SDS011;57434;42.794;23.302;2023-09-19T05:04:09;9.48;;;4.88;;
70071;SDS011;57434;42.794;23.302;2023-09-19T05:05:11;11.90;;;5.93;;
70071;SDS011;57434;42.794;23.302;2023-09-19T05:06:12;13.80;;;5.45;;
70071;SDS011;57434;42.794;23.302;2023-09-19T05:07:14;11.55;;;5.38;;
70071;SDS011;57434;42.794;23.302;2023-09-19T05:08:16;11.38;;;5.03;;
70071;SDS011;57434;42.794;23.302;2023-09-19T05:09:17;12.53;;;5.23;;
70071;SDS011;57434;42.794;23.302;2023-09-19T05:10:19;9.60;;;4.43;;
70071;SDS011;57434;42.794;23.302;2023-09-19T05:11:21;9.77;;;4.70;;
70071;SDS011;57434;42.794;23.302;2023-09-19T05:12:23;12.68;;;4.70;;
70071;SDS011;57434;42.794;23.302;2023-09-19T05:13:24;8.35;;;4.28;;
70071;SDS011;57434;42.794;23.302;2023-09-19T05:14:26;9.95;;;3.80;;
70071;SDS011;57434;42.794;23.302;2023-09-19T05:15:28;11.23;;;4.45;;
70071;SDS011;57434;42.794;23.302;2023-09-19T05:16:29;8.15;;;4.20;;
70071;SDS011;57434;42.794;23.302;2023-09-19T05:17:31;10.07;;;4.40;;
70071;SDS011;57434;42.794;23.302;2023-09-19T05:18:33;11.35;;;4.50;;
70071;SDS011;57434;42.794;23.302;2023-09-19T05:19:34;9.70;;;4.33;;
70071;SDS011;57434;42.794;23.302;2023-09-19T05:20:36;9.85;;;4.28;;
70071;SDS011;57434;42.794;23.302;2023-09-19T05:21:38;10.75;;;4.70;;
70071;SDS011;57434;42.794;23.302;2023-09-19T05:22:39;7.93;;;4.35;;
70071;SDS011;57434;42.794;23.302;2023-09-19T05:23:41;8.00;;;4.47;;
70071;SDS011;57434;42.794;23.302;2023-09-19T05:24:43;12.25;;;4.78;;
70071;SDS011;57434;42.794;23.302;2023-09-19T05:25:44;9.73;;;4.40;;
70071;SDS011;57434;42.794;23.302;2023-09-19T05:26:46;9.85;;;4.20;;
70071;SDS011;57434;42.794;23.302;2023-09-19T05:27:48;9.52;;;4.28;;
70071;SDS011;57434;42.794;23.302;2023-09-19T05:28:49;9.80;;;3.95;;
70071;SDS011;57434;42.794;23.302;2023-09-19T05:29:51;8.13;;;4.37;;
70071;SDS011;57434;42.794;23.302;2023-09-19T05:30:53;9.25;;;4.13;;
70071;SDS011;57434;42.794;23.302;2023-09-19T05:31:54;10.80;;;4.28;;
70071;SDS011;57434;42.794;23.302;2023-09-19T05:32:56;7.15;;;3.85;;
70071;SDS011;57434;42.794;23.302;2023-09-19T05:33:58;8.50;;;3.92;;
70071;SDS011;57434;42.794;23.302;2023-09-19T05:34:59;9.57;;;4.75;;
70071;SDS011;57434;42.794;23.302;2023-09-19T05:36:01;9.25;;;4.35;;
70071;SDS011;57434;42.794;23.302;2023-09-19T05:37:03;9.07;;;4.13;;
70071;SDS011;57434;42.794;23.302;2023-09-19T05:38:04;10.48;;;4.25;;
70071;SDS011;57434;42.794;23.302;2023-09-19T05:39:06;7.32;;;3.42;;
70071;SDS011;57434;42.794;23.302;2023-09-19T05:40:08;9.43;;;4.30;;
70071;SDS011;57434;42.794;23.302;2023-09-19T05:41:10;7.72;;;4.07;;
70071;SDS011;57434;42.794;23.302;2023-09-19T05:42:11;8.10;;;4.30;;
70071;SDS011;57434;42.794;23.302;2023-09-19T05:43:13;8.65;;;4.00;;
70071;SDS011;57434;42.794;23.302;2023-09-19T05:44:14;8.63;;;4.35;;
70071;SDS011;57434;42.794;23.302;2023-09-19T05:45:16;8.32;;;4.05;;
70071;SDS011;57434;42.794;23.302;2023-09-19T05:46:18;8.18;;;3.92;;
70071;SDS011;57434;42.794;23.302;2023-09-19T05:47:20;8.20;;;4.00;;
70071;SDS011;57434;42.794;23.302;2023-09-19T05:48:22;7.88;;;3.95;;
70071;SDS011;57434;42.794;23.302;2023-09-19T05:49:23;8.10;;;3.92;;
70071;SDS011;57434;42.794;23.302;2023-09-19T05:50:25;7.03;;;3.60;;
70071;SDS011;57434;42.794;23.302;2023-09-19T05:51:26;7.13;;;3.60;;
70071;SDS011;57434;42.794;23.302;2023-09-19T05:52:28;8.93;;;4.30;;
70071;SDS011;57434;42.794;23.302;2023-09-19T05:53:30;9.57;;;4.60;;
70071;SDS011;57434;42.794;23.302;2023-09-19T05:54:32;9.32;;;4.10;;
70071;SDS011;57434;42.794;23.302;2023-09-19T05:55:33;7.72;;;4.40;;
70071;SDS011;57434;42.794;23.302;2023-09-19T05:56:35;9.40;;;4.30;;
70071;SDS011;57434;42.794;23.302;2023-09-19T05:57:37;9.05;;;4.53;;
70071;SDS011;57434;42.794;23.302;2023-09-19T05:58:39;8.82;;;4.32;;
70071;SDS011;57434;42.794;23.302;2023-09-19T05:59:40;11.48;;;4.38;;
70071;SDS011;57434;42.794;23.302;2023-09-19T06:00:42;8.03;;;4.00;;
70071;SDS011;57434;42.794;23.302;2023-09-19T06:01:43;9.18;;;3.90;;
70071;SDS011;57434;42.794;23.302;2023-09-19T06:02:45;9.85;;;4.20;;
70071;SDS011;57434;42.794;23.302;2023-09-19T06:03:50;9.20;;;4.13;;
70071;SDS011;57434;42.794;23.302;2023-09-19T06:04:51;8.63;;;4.05;;
70071;SDS011;57434;42.794;23.302;2023-09-19T06:05:53;12.15;;;4.93;;
70071;SDS011;57434;42.794;23.302;2023-09-19T06:06:55;9.45;;;4.65;;
70071;SDS011;57434;42.794;23.302;2023-09-19T06:07:56;11.65;;;4.60;;
70071;SDS011;57434;42.794;23.302;2023-09-19T06:08:58;12.68;;;5.10;;
70071;SDS011;57434;42.794;23.302;2023-09-19T06:09:59;11.38;;;5.05;;
70071;SDS011;57434;42.794;23.302;2023-09-19T06:11:01;14.40;;;6.20;;
70071;SDS011;57434;42.794;23.302;2023-09-19T06:12:03;11.48;;;4.82;;
70071;SDS011;57434;42.794;23.302;2023-09-19T06:13:05;10.30;;;4.63;;
70071;SDS011;57434;42.794;23.302;2023-09-19T06:14:06;11.63;;;4.40;;
70071;SDS011;57434;42.794;23.302;2023-09-19T06:15:08;7.88;;;3.95;;
70071;SDS011;57434;42.794;23.302;2023-09-19T06:16:10;9.95;;;4.50;;
70071;SDS011;57434;42.794;23.302;2023-09-19T06:17:11;10.10;;;4.35;;
70071;SDS011;57434;42.794;23.302;2023-09-19T06:18:13;10.75;;;4.75;;
70071;SDS011;57434;42.794;23.302;2023-09-19T06:19:15;9.15;;;4.40;;
70071;SDS011;57434;42.794;23.302;2023-09-19T06:20:17;9.45;;;4.50;;
70071;SDS011;57434;42.794;23.302;2023-09-19T06:21:18;9.80;;;5.10;;
70071;SDS011;57434;42.794;23.302;2023-09-19T06:22:20;10.88;;;5.00;;
70071;SDS011;57434;42.794;23.302;2023-09-19T06:23:22;10.15;;;4.90;;
70071;SDS011;57434;42.794;23.302;2023-09-19T06:24:23;8.30;;;4.18;;
70071;SDS011;57434;42.794;23.302;2023-09-19T06:25:25;10.18;;;4.20;;